Polikhnitos, Greece
Current Conditions -  °F | °C
As of 7:20 PM on Thursday 30 Oct 2014 (Local Time) from LGMT Reporting Station
Broken Clouds Broken Clouds  
Wind Chill: 61°   Ceiling: 8000
Heat Index: 61°   Visibility: 6mi
Dew Point: 55°   Wind: 3mph
Humidity: 82%   Direction: NA
Pressure: 30.03"   Gusts: NA
Location:  39.08°N, 26.18°E
Report Text: LGMT 301720Z VRB03KT 9999 FEW025 BKN080 16/13 Q1017
Loading
Personal Weather Stations






























Interactive Weather Map
Tropical Storm Tracking
New forecast layout! Learn more

10-Day Weather Forecast

Advertisements
Track Severe Weather on mobile